createdAt,value
2019-02-23T00:00:31.268Z,49.50
2019-02-23T00:01:31.249Z,52.80
2019-02-23T00:02:31.177Z,52.50
2019-02-23T00:03:31.170Z,52.20
2019-02-23T00:04:31.097Z,54.30
2019-02-23T00:05:31.052Z,54.20
2019-02-23T00:06:31.023Z,55.30
2019-02-23T00:07:30.950Z,53.30
2019-02-23T00:08:30.920Z,53.80
2019-02-23T00:09:30.869Z,53.10
2019-02-23T00:10:30.827Z,56.30
2019-02-23T00:11:30.782Z,53.70
2019-02-23T00:12:30.757Z,55.80
2019-02-23T00:13:30.698Z,49.50
2019-02-23T00:14:30.641Z,52.20
2019-02-23T00:15:30.622Z,57.20
2019-02-23T00:16:30.559Z,56.30
2019-02-23T00:17:30.553Z,51.10
2019-02-23T00:18:30.489Z,46.20
2019-02-23T00:19:30.428Z,52.50
2019-02-23T00:20:30.377Z,45.50
2019-02-23T00:21:30.339Z,42.60
2019-02-23T00:22:30.322Z,42.70
2019-02-23T00:23:30.290Z,38.60
2019-02-23T00:24:30.210Z,38.70
2019-02-23T00:25:30.157Z,39.00
2019-02-23T00:26:30.110Z,39.70
2019-02-23T00:27:30.067Z,37.70
2019-02-23T00:28:30.059Z,39.60
2019-02-23T00:29:29.985Z,39.60
2019-02-23T00:30:29.946Z,38.70
2019-02-23T00:31:29.900Z,37.30
2019-02-23T00:32:29.845Z,42.30
2019-02-23T00:33:29.826Z,42.30
2019-02-23T00:34:29.789Z,43.40
2019-02-23T00:35:29.717Z,37.10
2019-02-23T00:36:29.676Z,36.80
2019-02-23T00:37:29.632Z,36.20
2019-02-23T00:38:29.580Z,40.80
2019-02-23T00:39:29.531Z,38.70
2019-02-23T00:40:29.523Z,41.20
2019-02-23T00:41:29.452Z,33.20
2019-02-23T00:42:29.406Z,32.10
2019-02-23T00:43:29.359Z,31.60
2019-02-23T00:44:29.348Z,35.80
2019-02-23T00:45:29.268Z,34.10
2019-02-23T00:46:29.221Z,30.60
2019-02-23T00:47:29.176Z,31.50
2019-02-23T00:48:29.142Z,31.10
2019-02-23T00:49:36.435Z,31.60
2019-02-23T00:50:29.052Z,26.70
2019-02-23T00:51:29.008Z,26.40
2019-02-23T00:52:28.959Z,30.20
2019-02-23T00:53:28.914Z,28.10
2019-02-23T00:54:28.901Z,28.60
2019-02-23T00:55:28.853Z,31.50
2019-02-23T00:56:28.778Z,33.00
2019-02-23T00:57:28.735Z,27.40
2019-02-23T00:58:28.689Z,36.10
2019-02-23T00:59:28.648Z,34.10
2019-02-23T01:00:28.632Z,29.50
2019-02-23T01:01:28.590Z,32.70
2019-02-23T01:02:28.524Z,27.10
2019-02-23T01:03:28.483Z,33.40
2019-02-23T01:04:28.435Z,33.50
2019-02-23T01:05:28.383Z,37.20
2019-02-23T01:06:28.361Z,36.80
2019-02-23T01:07:28.315Z,30.80
2019-02-23T01:08:28.258Z,34.40
2019-02-23T01:09:28.215Z,33.60
2019-02-23T01:10:28.190Z,39.90
2019-02-23T01:11:28.118Z,31.50
2019-02-23T01:12:28.081Z,29.90
2019-02-23T01:13:28.037Z,33.80
2019-02-23T01:14:27.990Z,36.70
2019-02-23T01:15:27.951Z,37.90
2019-02-23T01:16:27.921Z,35.90
2019-02-23T01:17:27.852Z,40.70
2019-02-23T01:18:27.807Z,40.80
2019-02-23T01:19:27.765Z,41.10
2019-02-23T01:20:27.727Z,39.50
2019-02-23T01:21:27.702Z,40.30
2019-02-23T01:22:27.634Z,38.60
2019-02-23T01:23:27.598Z,37.90
2019-02-23T01:24:27.538Z,40.30
2019-02-23T01:25:27.497Z,38.60
2019-02-23T01:26:27.481Z,40.00
2019-02-23T01:27:27.412Z,38.90
2019-02-23T01:28:27.365Z,39.20
2019-02-23T01:29:27.318Z,37.20
2019-02-23T01:30:27.277Z,38.10
2019-02-23T01:31:27.264Z,37.70
2019-02-23T01:32:27.191Z,34.60
2019-02-23T01:33:27.160Z,36.60
2019-02-23T01:34:27.100Z,36.30
2019-02-23T01:35:27.063Z,38.00
2019-02-23T01:36:27.008Z,45.80
2019-02-23T01:37:26.985Z,42.40
2019-02-23T01:38:26.912Z,39.50
2019-02-23T01:39:26.875Z,43.10
2019-02-23T01:40:26.837Z,39.10
2019-02-23T01:41:26.803Z,36.50
2019-02-23T01:42:26.761Z,37.10
2019-02-23T01:43:26.713Z,37.80
2019-02-23T01:44:26.725Z,35.90
2019-02-23T01:45:26.611Z,38.40
2019-02-23T01:46:26.564Z,38.70
2019-02-23T01:47:26.540Z,38.90
2019-02-23T01:48:26.467Z,35.30
2019-02-23T01:49:26.444Z,34.80
2019-02-23T01:50:26.374Z,37.00
2019-02-23T01:51:26.331Z,39.10
2019-02-23T01:52:26.296Z,40.40
2019-02-23T01:53:26.248Z,40.30
2019-02-23T01:54:26.232Z,35.00
2019-02-23T01:55:26.157Z,36.30
2019-02-23T01:56:26.107Z,35.80
2019-02-23T01:57:26.062Z,34.00
2019-02-23T01:58:26.024Z,38.60
2019-02-23T01:59:25.977Z,40.80
2019-02-23T02:00:25.955Z,40.90
2019-02-23T02:01:25.883Z,41.00
2019-02-23T02:02:25.838Z,38.30
2019-02-23T02:03:25.822Z,40.00
2019-02-23T02:04:25.756Z,38.60
2019-02-23T02:05:25.737Z,42.40
2019-02-23T02:06:25.670Z,46.60
2019-02-23T02:07:25.621Z,42.60
2019-02-23T02:08:25.573Z,40.90
2019-02-23T02:09:25.523Z,36.90
2019-02-23T02:10:25.481Z,39.10
2019-02-23T02:11:25.467Z,38.70
2019-02-23T02:12:25.397Z,37.40
2019-02-23T02:13:25.353Z,38.30
2019-02-23T02:14:25.321Z,37.50
2019-02-23T02:15:25.257Z,36.50
2019-02-23T02:16:25.216Z,37.30
2019-02-23T02:17:25.174Z,39.50
2019-02-23T02:18:25.127Z,42.10
2019-02-23T02:19:25.104Z,48.90
2019-02-23T02:20:25.027Z,48.10
2019-02-23T02:21:24.980Z,43.30
2019-02-23T02:22:24.937Z,38.60
2019-02-23T02:23:24.917Z,38.60
2019-02-23T02:24:24.855Z,39.60
2019-02-23T02:25:24.811Z,40.60
2019-02-23T02:26:24.762Z,35.40
2019-02-23T02:27:24.718Z,35.90
2019-02-23T02:28:24.667Z,37.40
2019-02-23T02:29:24.641Z,44.90
2019-02-23T02:30:24.606Z,43.80
2019-02-23T02:31:24.537Z,37.40
2019-02-23T02:32:24.489Z,36.60
2019-02-23T02:33:24.444Z,39.00
2019-02-23T02:34:24.394Z,42.70
2019-02-23T02:35:24.373Z,31.80
2019-02-23T02:36:24.314Z,36.60
2019-02-23T02:37:24.268Z,37.50
2019-02-23T02:38:24.218Z,39.40
2019-02-23T02:39:24.176Z,38.10
2019-02-23T02:40:24.150Z,39.40
2019-02-23T02:41:24.081Z,37.60
2019-02-23T02:42:24.033Z,38.50
2019-02-23T02:43:23.990Z,46.40
2019-02-23T02:44:23.953Z,47.10
2019-02-23T02:45:23.907Z,39.90
2019-02-23T02:46:23.881Z,33.80
2019-02-23T02:47:23.805Z,34.30
2019-02-23T02:48:23.775Z,41.50
2019-02-23T02:49:23.723Z,39.80
2019-02-23T02:50:24.910Z,40.10
2019-02-23T02:51:23.640Z,42.40
2019-02-23T02:52:23.604Z,37.80
2019-02-23T02:53:23.534Z,38.30
2019-02-23T02:54:23.487Z,41.30
2019-02-23T02:55:23.447Z,40.50
2019-02-23T02:56:23.406Z,37.80
2019-02-23T02:57:23.383Z,40.10
2019-02-23T02:58:23.316Z,39.70
2019-02-23T02:59:23.273Z,43.50
2019-02-23T03:00:23.218Z,41.50
2019-02-23T03:01:23.169Z,37.90
2019-02-23T03:02:23.160Z,36.20
2019-02-23T03:03:23.086Z,31.50
2019-02-23T03:04:23.049Z,37.40
2019-02-23T03:05:22.988Z,37.80
2019-02-23T03:06:22.943Z,30.00
2019-02-23T03:07:22.898Z,31.10
2019-02-23T03:08:22.882Z,33.20
2019-02-23T03:09:22.813Z,31.00
2019-02-23T03:10:22.769Z,29.90
2019-02-23T03:11:22.723Z,28.80
2019-02-23T03:12:22.695Z,26.20
2019-02-23T03:13:22.623Z,22.80
2019-02-23T03:14:22.579Z,23.90
2019-02-23T03:15:22.538Z,20.80
2019-02-23T03:16:22.499Z,21.30
2019-02-23T03:17:22.481Z,20.60
2019-02-23T03:18:22.396Z,20.90
2019-02-23T03:19:22.355Z,19.10
2019-02-23T03:20:22.311Z,20.80
2019-02-23T03:21:22.267Z,22.20
2019-02-23T03:22:22.231Z,21.50
2019-02-23T03:23:22.203Z,20.00
2019-02-23T03:24:22.129Z,21.00
2019-02-23T03:25:22.078Z,20.30
2019-02-23T03:26:22.035Z,19.40
2019-02-23T03:27:21.989Z,19.70
2019-02-23T03:28:21.952Z,19.70
2019-02-23T03:29:21.930Z,20.20
2019-02-23T03:30:21.860Z,23.70
2019-02-23T03:31:21.817Z,24.00
2019-02-23T03:32:21.766Z,23.40
2019-02-23T03:33:21.745Z,22.70
2019-02-23T03:34:21.701Z,20.00
2019-02-23T03:35:21.634Z,21.20
2019-02-23T03:36:21.583Z,21.90
2019-02-23T03:37:21.565Z,21.40
2019-02-23T03:38:21.494Z,20.80
2019-02-23T03:39:21.474Z,21.10
2019-02-23T03:40:21.410Z,20.90
2019-02-23T03:41:21.367Z,22.20
2019-02-23T03:42:21.319Z,21.60
2019-02-23T03:43:21.280Z,20.50
2019-02-23T03:44:21.221Z,20.60
2019-02-23T03:45:21.201Z,20.90
2019-02-23T03:46:21.131Z,21.50
2019-02-23T03:47:21.090Z,21.40
2019-02-23T03:48:21.046Z,20.70
2019-02-23T03:49:21.023Z,20.80
2019-02-23T03:50:20.949Z,21.50
2019-02-23T03:51:20.927Z,21.60
2019-02-23T03:52:20.880Z,21.40
2019-02-23T03:53:20.826Z,21.70
2019-02-23T03:54:20.774Z,21.60
2019-02-23T03:55:20.757Z,21.60
2019-02-23T03:56:20.682Z,21.60
2019-02-23T03:57:20.663Z,22.60
2019-02-23T03:58:20.680Z,21.00
2019-02-23T03:59:20.550Z,22.20
2019-02-23T04:00:20.508Z,21.80
2019-02-23T04:01:20.466Z,21.90
2019-02-23T04:02:20.418Z,22.90
2019-02-23T04:03:20.402Z,23.10
2019-02-23T04:04:20.322Z,22.10
2019-02-23T04:05:20.272Z,22.40
2019-02-23T04:06:20.239Z,21.20
2019-02-23T04:07:20.197Z,22.60
2019-02-23T04:08:20.144Z,23.20
2019-02-23T04:09:20.119Z,22.20
2019-02-23T04:10:20.085Z,22.50
2019-02-23T04:11:20.029Z,22.40
2019-02-23T04:12:19.970Z,23.00
2019-02-23T04:13:19.925Z,22.50
2019-02-23T04:14:19.878Z,23.20
2019-02-23T04:15:19.835Z,24.60
2019-02-23T04:16:19.807Z,23.10
2019-02-23T04:17:19.737Z,23.20
2019-02-23T04:18:19.692Z,23.30
2019-02-23T04:19:19.645Z,23.10
2019-02-23T04:20:19.608Z,23.90
2019-02-23T04:21:19.570Z,22.60
2019-02-23T04:22:19.530Z,23.00
2019-02-23T04:23:19.467Z,21.50
2019-02-23T04:24:19.430Z,23.10
2019-02-23T04:25:19.381Z,21.60
2019-02-23T04:26:19.335Z,22.40
2019-02-23T04:27:19.316Z,22.20
2019-02-23T04:28:19.243Z,24.00
2019-02-23T04:29:19.197Z,22.80
2019-02-23T04:30:19.150Z,23.30
2019-02-23T04:31:19.106Z,23.50
2019-02-23T04:32:19.094Z,24.10
2019-02-23T04:33:19.020Z,24.40
2019-02-23T04:34:18.979Z,24.10
2019-02-23T04:35:18.933Z,23.60
2019-02-23T04:36:18.881Z,24.20
2019-02-23T04:37:18.859Z,24.10
2019-02-23T04:38:18.796Z,24.60
2019-02-23T04:39:18.751Z,23.50
2019-02-23T04:40:18.698Z,23.60
2019-02-23T04:41:18.657Z,24.90
2019-02-23T04:42:18.634Z,24.90
2019-02-23T04:43:18.563Z,24.00
2019-02-23T04:44:18.534Z,23.80
2019-02-23T04:45:18.479Z,24.90
2019-02-23T04:46:18.434Z,24.80
2019-02-23T04:47:18.399Z,24.30
2019-02-23T04:48:18.379Z,24.80
2019-02-23T04:49:18.294Z,25.10
2019-02-23T04:50:18.251Z,24.10
2019-02-23T04:51:18.211Z,24.60
2019-02-23T04:52:18.162Z,23.50
2019-02-23T04:53:18.139Z,25.30
2019-02-23T04:54:18.067Z,25.40
2019-02-23T04:55:18.029Z,24.90
2019-02-23T04:56:17.990Z,25.40
2019-02-23T04:57:17.942Z,26.20
2019-02-23T04:58:17.923Z,25.00
2019-02-23T04:59:17.851Z,25.40
2019-02-23T05:00:17.797Z,25.90
2019-02-23T05:01:17.750Z,25.30
2019-02-23T05:02:17.706Z,25.60
2019-02-23T05:03:17.659Z,25.20
2019-02-23T05:04:17.643Z,25.10
2019-02-23T05:05:17.604Z,25.30
2019-02-23T05:06:17.534Z,24.90
2019-02-23T05:07:17.489Z,25.00
2019-02-23T05:08:17.440Z,24.80
2019-02-23T05:09:17.391Z,25.30
2019-02-23T05:10:17.354Z,26.00
2019-02-23T05:11:17.329Z,25.10
2019-02-23T05:12:17.253Z,26.10
2019-02-23T05:13:17.218Z,25.50
2019-02-23T05:14:17.189Z,26.40
2019-02-23T05:15:17.117Z,26.30
2019-02-23T05:16:17.079Z,27.00
2019-02-23T05:17:17.034Z,25.50
2019-02-23T05:18:16.985Z,26.10
2019-02-23T05:19:16.965Z,26.00
2019-02-23T05:20:16.893Z,27.20
2019-02-23T05:21:25.944Z,27.00
2019-02-23T05:22:16.803Z,27.10
2019-02-23T05:23:16.757Z,27.30
2019-02-23T05:24:16.741Z,27.50
2019-02-23T05:25:16.670Z,27.00
2019-02-23T05:26:16.622Z,26.70
2019-02-23T05:27:16.577Z,26.80
2019-02-23T05:28:16.534Z,26.20
2019-02-23T05:29:16.512Z,26.20
2019-02-23T05:30:16.445Z,26.20
2019-02-23T05:31:16.397Z,27.00
2019-02-23T05:32:16.348Z,27.80
2019-02-23T05:33:16.303Z,27.70
2019-02-23T05:34:16.278Z,27.70
2019-02-23T05:35:16.222Z,27.10
2019-02-23T05:36:16.172Z,28.00
2019-02-23T05:37:16.130Z,27.10
2019-02-23T05:38:16.085Z,27.60
2019-02-23T05:39:17.854Z,28.00
2019-02-23T05:40:15.992Z,28.30
2019-02-23T05:41:15.941Z,25.80
2019-02-23T05:42:15.903Z,27.00
2019-02-23T05:43:15.862Z,27.30
2019-02-23T05:44:15.830Z,26.60
2019-02-23T05:45:15.758Z,26.70
2019-02-23T05:46:15.716Z,26.90
2019-02-23T05:47:15.667Z,27.20
2019-02-23T05:48:15.667Z,27.10
2019-02-23T05:49:15.583Z,27.30
2019-02-23T05:50:15.536Z,27.00
2019-02-23T05:51:15.494Z,27.40
2019-02-23T05:52:15.444Z,26.50
2019-02-23T05:53:15.397Z,25.90
2019-02-23T05:54:15.373Z,27.00
2019-02-23T05:55:15.304Z,27.30
2019-02-23T05:56:16.323Z,27.50
2019-02-23T05:57:15.229Z,28.00
2019-02-23T05:58:15.166Z,28.40
2019-02-23T05:59:15.146Z,27.10
2019-02-23T06:00:15.083Z,27.80
2019-02-23T06:01:15.041Z,27.60
2019-02-23T06:02:15.013Z,28.00
2019-02-23T06:03:14.969Z,26.60
2019-02-23T06:04:14.899Z,28.90
2019-02-23T06:05:14.862Z,27.90
2019-02-23T06:06:14.805Z,27.80
2019-02-23T06:07:14.789Z,28.90
2019-02-23T06:08:14.721Z,29.20
2019-02-23T06:09:14.677Z,28.10
2019-02-23T06:10:14.633Z,28.40
2019-02-23T06:11:14.584Z,29.60
2019-02-23T06:12:14.533Z,28.50
2019-02-23T06:13:14.507Z,30.10
2019-02-23T06:14:14.448Z,30.00
2019-02-23T06:15:14.404Z,30.00
2019-02-23T06:16:14.351Z,29.50
2019-02-23T06:17:14.312Z,28.40
2019-02-23T06:18:14.287Z,27.70
2019-02-23T06:19:14.216Z,27.30
2019-02-23T06:20:14.178Z,29.10
2019-02-23T06:21:14.131Z,29.80
2019-02-23T06:22:14.085Z,29.80
2019-02-23T06:23:14.042Z,28.90
2019-02-23T06:24:14.008Z,27.90
2019-02-23T06:25:13.942Z,27.10
2019-02-23T06:26:13.897Z,27.70
2019-02-23T06:27:13.851Z,27.40
2019-02-23T06:28:13.834Z,27.90
2019-02-23T06:29:13.767Z,28.70
2019-02-23T06:30:13.738Z,24.60
2019-02-23T06:31:13.678Z,25.70
2019-02-23T06:32:13.638Z,25.50
2019-02-23T06:33:13.580Z,25.50
2019-02-23T06:34:16.532Z,25.00
2019-02-23T06:35:13.492Z,25.60
2019-02-23T06:36:13.441Z,25.20
2019-02-23T06:37:13.392Z,24.90
2019-02-23T06:38:13.347Z,24.80
2019-02-23T06:39:13.329Z,25.40
2019-02-23T06:40:13.264Z,23.20
2019-02-23T06:41:13.219Z,25.20
2019-02-23T06:42:13.173Z,23.70
2019-02-23T06:43:13.133Z,24.40
2019-02-23T06:44:13.106Z,23.10
2019-02-23T06:45:13.035Z,24.00
2019-02-23T06:46:12.991Z,24.90
2019-02-23T06:47:12.945Z,24.10
2019-02-23T06:48:12.894Z,23.80
2019-02-23T06:49:12.849Z,22.80
2019-02-23T06:50:12.827Z,24.40
2019-02-23T06:51:12.763Z,23.70
2019-02-23T06:52:12.748Z,22.10
2019-02-23T06:53:12.671Z,22.90
2019-02-23T06:54:12.692Z,22.60
2019-02-23T06:55:12.581Z,22.70
2019-02-23T06:56:12.528Z,22.30
2019-02-23T06:57:12.482Z,23.40
2019-02-23T06:58:12.460Z,23.60
2019-02-23T06:59:12.393Z,22.60
2019-02-23T07:00:12.381Z,23.40
2019-02-23T07:01:12.308Z,23.00
2019-02-23T07:02:12.252Z,22.80
2019-02-23T07:03:12.212Z,22.20
2019-02-23T07:04:12.211Z,22.00
2019-02-23T07:05:12.139Z,21.50
2019-02-23T07:06:12.118Z,21.70
2019-02-23T07:07:12.036Z,20.50
2019-02-23T07:08:11.986Z,21.00
2019-02-23T07:09:11.939Z,20.80
2019-02-23T07:10:11.933Z,20.80
2019-02-23T07:11:11.869Z,20.30
2019-02-23T07:12:11.830Z,19.50
2019-02-23T07:13:11.788Z,19.30
2019-02-23T07:14:11.718Z,18.70
2019-02-23T07:15:11.685Z,18.60
2019-02-23T07:16:11.657Z,18.90
2019-02-23T07:17:11.575Z,19.20
2019-02-23T07:18:11.538Z,19.20
2019-02-23T07:19:11.493Z,19.70
2019-02-23T07:20:11.446Z,19.00
2019-02-23T07:21:11.398Z,19.00
2019-02-23T07:22:15.593Z,18.60
2019-02-23T07:23:11.314Z,18.10
2019-02-23T07:24:11.299Z,18.00
2019-02-23T07:25:11.227Z,18.20
2019-02-23T07:26:11.180Z,17.30
2019-02-23T07:27:11.160Z,17.80
2019-02-23T07:28:11.086Z,16.10
2019-02-23T07:29:11.044Z,16.80
2019-02-23T07:30:11.006Z,16.50
2019-02-23T07:31:10.958Z,17.00
2019-02-23T07:32:10.947Z,17.20
2019-02-23T07:33:10.877Z,17.30
2019-02-23T07:34:10.913Z,17.10
2019-02-23T07:35:10.894Z,17.30
2019-02-23T07:36:10.746Z,17.20
2019-02-23T07:37:10.706Z,16.50
2019-02-23T07:38:10.681Z,17.00
2019-02-23T07:39:10.612Z,17.60
2019-02-23T07:40:10.564Z,17.60
2019-02-23T07:41:10.521Z,16.20
2019-02-23T07:42:10.478Z,16.90
2019-02-23T07:43:10.458Z,16.80
2019-02-23T07:44:10.397Z,16.10
2019-02-23T07:45:10.354Z,17.30
2019-02-23T07:46:10.317Z,16.00
2019-02-23T07:47:10.273Z,17.10
2019-02-23T07:48:10.249Z,16.00
2019-02-23T07:49:10.176Z,16.60
2019-02-23T07:50:10.143Z,17.50
2019-02-23T07:51:10.329Z,16.80
2019-02-23T07:52:10.048Z,16.00
2019-02-23T07:53:10.006Z,15.70
2019-02-23T07:54:09.961Z,16.40
2019-02-23T07:55:09.922Z,16.50
2019-02-23T07:56:09.912Z,17.50
2019-02-23T07:57:09.841Z,17.60
2019-02-23T07:58:09.799Z,17.90
2019-02-23T07:59:09.779Z,17.30
2019-02-23T08:00:09.732Z,17.70
2019-02-23T08:01:09.662Z,17.80
2019-02-23T08:02:09.621Z,17.90
2019-02-23T08:03:09.584Z,17.30
2019-02-23T08:04:09.544Z,17.10
2019-02-23T08:05:09.503Z,17.40
2019-02-23T08:06:09.473Z,17.40
2019-02-23T08:07:09.408Z,17.20
2019-02-23T08:08:09.373Z,16.60
2019-02-23T08:09:09.332Z,16.80
2019-02-23T08:10:09.311Z,17.00
2019-02-23T08:11:09.248Z,17.10
2019-02-23T08:12:09.196Z,17.60
2019-02-23T08:13:09.158Z,17.20
2019-02-23T08:14:09.115Z,17.70
2019-02-23T08:15:09.094Z,17.20
2019-02-23T08:16:09.035Z,17.10
2019-02-23T08:17:08.990Z,16.60
2019-02-23T08:18:08.953Z,16.60
2019-02-23T08:19:08.908Z,17.10
2019-02-23T08:20:08.882Z,16.50
2019-02-23T08:21:08.820Z,16.10
2019-02-23T08:22:08.808Z,16.70
2019-02-23T08:23:08.744Z,16.10
2019-02-23T08:24:08.688Z,17.00
2019-02-23T08:25:08.655Z,17.20
2019-02-23T08:26:08.607Z,17.00
2019-02-23T08:27:08.566Z,16.30
2019-02-23T08:28:08.555Z,17.80
2019-02-23T08:29:08.486Z,17.00
2019-02-23T08:30:08.437Z,16.90
2019-02-23T08:31:08.498Z,17.30
2019-02-23T08:32:08.366Z,17.00
2019-02-23T08:33:08.323Z,17.10
2019-02-23T08:34:08.328Z,16.90
2019-02-23T08:35:08.238Z,17.10
2019-02-23T08:36:08.215Z,16.50
2019-02-23T08:37:08.154Z,17.10
2019-02-23T08:38:08.112Z,16.50
2019-02-23T08:39:08.078Z,16.90
2019-02-23T08:40:08.030Z,17.10
2019-02-23T08:41:08.011Z,16.50
2019-02-23T08:42:08.020Z,17.10
2019-02-23T08:43:07.902Z,16.80
2019-02-23T08:44:07.871Z,16.90
2019-02-23T08:45:08.148Z,17.00
2019-02-23T08:46:07.788Z,17.10
2019-02-23T08:47:07.805Z,18.20
2019-02-23T08:48:07.698Z,17.30
2019-02-23T08:49:07.668Z,17.30
2019-02-23T08:50:07.619Z,17.40
2019-02-23T08:51:07.575Z,17.10
2019-02-23T08:52:07.567Z,17.00
2019-02-23T08:53:07.501Z,16.90
2019-02-23T08:54:07.456Z,16.30
2019-02-23T08:55:07.413Z,16.40
2019-02-23T08:56:07.378Z,16.60
2019-02-23T08:57:07.360Z,17.10
2019-02-23T08:58:07.305Z,16.80
2019-02-23T08:59:07.260Z,17.30
2019-02-23T09:00:07.301Z,16.00
2019-02-23T09:01:07.171Z,17.10
2019-02-23T09:02:07.140Z,16.70
2019-02-23T09:03:07.095Z,16.50
2019-02-23T09:04:07.084Z,16.30
2019-02-23T09:05:07.022Z,16.70
2019-02-23T09:06:06.980Z,16.50
2019-02-23T09:07:06.942Z,16.40
2019-02-23T09:08:06.896Z,16.10
2019-02-23T09:09:08.170Z,16.70
2019-02-23T09:10:06.824Z,16.40
2019-02-23T09:11:06.782Z,15.80
2019-02-23T09:12:06.741Z,16.90
2019-02-23T09:13:06.698Z,16.60
2019-02-23T09:14:06.660Z,17.20
2019-02-23T09:15:06.645Z,16.90
2019-02-23T09:16:06.591Z,16.50
2019-02-23T09:17:06.655Z,16.70
2019-02-23T09:18:06.512Z,16.90
2019-02-23T09:19:06.496Z,15.40
2019-02-23T09:20:06.437Z,17.10
2019-02-23T09:21:06.390Z,16.10
2019-02-23T09:22:06.348Z,15.80
2019-02-23T09:23:06.316Z,16.60
2019-02-23T09:24:06.302Z,16.10
2019-02-23T09:25:06.241Z,16.00
2019-02-23T09:26:06.194Z,15.60
2019-02-23T09:27:06.159Z,16.80
2019-02-23T09:28:06.126Z,15.60
2019-02-23T09:29:06.111Z,15.50
2019-02-23T09:30:06.051Z,16.10
2019-02-23T09:31:06.013Z,15.80
2019-02-23T09:32:05.966Z,16.00
2019-02-23T09:33:05.935Z,15.40
2019-02-23T09:34:05.916Z,16.20
2019-02-23T09:35:05.849Z,16.00
2019-02-23T09:36:05.818Z,15.40
2019-02-23T09:37:05.782Z,16.20
2019-02-23T09:38:05.767Z,16.10
2019-02-23T09:39:05.723Z,15.40
2019-02-23T09:40:05.681Z,16.00
2019-02-23T09:41:05.625Z,16.20
2019-02-23T09:42:07.714Z,16.70
2019-02-23T09:43:05.578Z,16.20
2019-02-23T09:44:05.511Z,16.10
2019-02-23T09:45:05.469Z,16.00
2019-02-23T09:46:05.434Z,15.90
2019-02-23T09:47:05.404Z,15.80
2019-02-23T09:48:05.384Z,16.00
2019-02-23T09:49:05.326Z,16.40
2019-02-23T09:50:05.286Z,16.70
2019-02-23T09:51:05.274Z,15.80
2019-02-23T09:52:05.221Z,16.70
2019-02-23T09:53:11.129Z,15.40
2019-02-23T09:54:05.129Z,15.40
2019-02-23T09:55:05.094Z,15.50
2019-02-23T09:56:05.097Z,15.70
2019-02-23T09:57:05.052Z,15.40
2019-02-23T09:58:05.040Z,14.90
2019-02-23T09:59:04.942Z,14.80
2019-02-23T10:00:04.915Z,14.70
2019-02-23T10:01:04.876Z,14.70
2019-02-23T10:02:04.836Z,14.80
2019-02-23T10:03:04.797Z,15.30
2019-02-23T10:04:04.783Z,14.20
2019-02-23T10:05:04.716Z,15.20
2019-02-23T10:06:04.675Z,14.50
2019-02-23T10:07:04.665Z,14.90
2019-02-23T10:08:04.612Z,14.10
2019-02-23T10:09:04.593Z,14.50
2019-02-23T10:10:04.535Z,14.80
2019-02-23T10:11:04.500Z,14.10
2019-02-23T10:12:04.481Z,14.00
2019-02-23T10:13:04.418Z,14.10
2019-02-23T10:14:04.417Z,15.00
2019-02-23T10:15:04.361Z,14.90
2019-02-23T10:16:04.308Z,14.10
2019-02-23T10:17:04.271Z,14.30
2019-02-23T10:18:04.233Z,14.80
2019-02-23T10:19:04.198Z,14.90
2019-02-23T10:20:04.192Z,14.20
2019-02-23T10:21:04.129Z,13.80
2019-02-23T10:22:04.123Z,14.50
2019-02-23T10:23:04.056Z,13.80
2019-02-23T10:24:04.012Z,13.90
2019-02-23T10:25:04.004Z,13.60
2019-02-23T10:26:03.939Z,14.20
2019-02-23T10:27:03.900Z,14.00
2019-02-23T10:28:03.873Z,13.60
2019-02-23T10:29:03.841Z,13.70
2019-02-23T10:30:03.791Z,13.80
2019-02-23T10:31:03.851Z,13.80
2019-02-23T10:32:03.727Z,13.30
2019-02-23T10:33:03.716Z,13.50
2019-02-23T10:34:03.652Z,13.90
2019-02-23T10:35:03.615Z,12.80
2019-02-23T10:36:03.573Z,13.10
2019-02-23T10:37:03.557Z,13.20
2019-02-23T10:38:03.497Z,13.10
2019-02-23T10:39:03.462Z,12.90
2019-02-23T10:40:03.447Z,12.50
2019-02-23T10:41:03.425Z,12.90
2019-02-23T10:42:03.367Z,13.10
2019-02-23T10:43:03.325Z,13.00
2019-02-23T10:44:03.301Z,13.00
2019-02-23T10:45:03.243Z,12.80
2019-02-23T10:46:03.212Z,13.20
2019-02-23T10:47:03.201Z,13.30
2019-02-23T10:48:03.161Z,13.40
2019-02-23T10:49:03.097Z,12.70
2019-02-23T10:50:03.060Z,13.30
2019-02-23T10:51:03.026Z,13.20
2019-02-23T10:52:02.994Z,13.10
2019-02-23T10:53:02.964Z,12.20
2019-02-23T10:54:02.945Z,13.20
2019-02-23T10:55:02.888Z,12.90
2019-02-23T10:56:02.841Z,12.10
2019-02-23T10:57:02.809Z,12.00
2019-02-23T10:58:02.772Z,12.90
2019-02-23T10:59:02.762Z,12.80
2019-02-23T11:00:02.705Z,12.60
2019-02-23T11:01:02.664Z,13.20
2019-02-23T11:02:02.620Z,12.60
2019-02-23T11:03:02.585Z,12.40
2019-02-23T11:04:02.558Z,12.20
2019-02-23T11:05:02.539Z,12.50
2019-02-23T11:06:02.485Z,12.10
2019-02-23T11:07:02.448Z,11.30
2019-02-23T11:08:02.406Z,12.60
2019-02-23T11:09:02.363Z,13.30
2019-02-23T11:10:02.363Z,12.60
2019-02-23T11:11:02.318Z,12.10
2019-02-23T11:12:02.263Z,12.40
2019-02-23T11:13:02.224Z,12.60
2019-02-23T11:14:02.196Z,12.00
2019-02-23T11:15:02.158Z,12.60
2019-02-23T11:16:02.104Z,12.60
2019-02-23T11:17:02.105Z,12.60
2019-02-23T11:18:02.962Z,12.70
2019-02-23T11:19:02.004Z,12.50
2019-02-23T11:20:01.960Z,13.00
2019-02-23T11:21:01.954Z,12.10
2019-02-23T11:22:01.911Z,12.40
2019-02-23T11:23:01.849Z,11.60
2019-02-23T11:24:01.820Z,11.80
2019-02-23T11:25:01.792Z,12.10
2019-02-23T11:26:01.765Z,12.10
2019-02-23T11:27:01.709Z,12.40
2019-02-23T11:28:01.665Z,11.60
2019-02-23T11:29:01.628Z,12.00
2019-02-23T11:30:01.594Z,12.10
2019-02-23T11:31:01.586Z,11.70
2019-02-23T11:32:01.525Z,12.00
2019-02-23T11:33:01.489Z,12.20
2019-02-23T11:34:01.451Z,11.40
2019-02-23T11:35:01.406Z,12.50
2019-02-23T11:36:01.376Z,11.50
2019-02-23T11:37:01.366Z,12.00
2019-02-23T11:38:01.303Z,11.70
2019-02-23T11:39:01.270Z,12.20
2019-02-23T11:40:01.245Z,11.60
2019-02-23T11:41:01.185Z,12.00
2019-02-23T11:42:01.174Z,11.30
2019-02-23T11:43:01.118Z,11.40
2019-02-23T11:44:01.084Z,11.20
2019-02-23T11:45:01.079Z,10.70
2019-02-23T11:46:01.022Z,10.30
2019-02-23T11:47:00.973Z,11.00
2019-02-23T11:48:00.955Z,10.70
2019-02-23T11:49:00.897Z,10.20
2019-02-23T11:50:00.865Z,10.50
2019-02-23T11:51:00.831Z,10.40
2019-02-23T11:52:00.785Z,10.30
2019-02-23T11:53:00.775Z,10.20
2019-02-23T11:54:00.715Z,9.60
2019-02-23T11:55:00.702Z,9.80
2019-02-23T11:56:00.649Z,9.40
2019-02-23T11:57:00.619Z,10.10
2019-02-23T11:58:00.579Z,9.10
2019-02-23T11:59:00.544Z,9.10
2019-02-23T12:00:00.627Z,9.20
2019-02-23T12:01:00.460Z,8.80
2019-02-23T12:02:00.424Z,9.30
2019-02-23T12:03:00.419Z,9.00
2019-02-23T12:04:00.362Z,9.00
2019-02-23T12:05:00.365Z,9.50
2019-02-23T12:06:00.288Z,8.90
2019-02-23T12:07:00.245Z,8.70
2019-02-23T12:08:00.218Z,9.20
2019-02-23T12:09:00.182Z,9.30
2019-02-23T12:10:00.334Z,9.10
2019-02-23T12:11:00.110Z,8.70
2019-02-23T12:12:00.069Z,8.60
2019-02-23T12:13:00.050Z,8.20
2019-02-23T12:13:59.990Z,8.40
2019-02-23T12:15:00.715Z,9.00
2019-02-23T12:15:59.923Z,8.50
2019-02-23T12:16:59.889Z,8.40
2019-02-23T12:17:59.857Z,8.40
2019-02-23T12:18:59.843Z,8.30
2019-02-23T12:19:59.796Z,8.70
2019-02-23T12:20:59.736Z,8.60
2019-02-23T12:21:59.707Z,8.90
2019-02-23T12:22:59.670Z,8.30
2019-02-23T12:24:06.010Z,8.60
2019-02-23T12:24:59.587Z,9.40
2019-02-23T12:25:59.554Z,10.80
2019-02-23T12:26:59.514Z,19.90
2019-02-23T12:27:59.484Z,10.00
2019-02-23T12:28:59.447Z,8.00
2019-02-23T12:29:59.433Z,8.50
2019-02-23T12:30:59.375Z,8.20
2019-02-23T12:31:59.338Z,8.40
2019-02-23T12:32:59.294Z,8.00
2019-02-23T12:33:59.254Z,7.90
2019-02-23T12:34:59.246Z,7.90
2019-02-23T12:35:59.190Z,7.50
2019-02-23T12:36:59.159Z,8.00
2019-02-23T12:37:59.107Z,7.70
2019-02-23T12:38:59.098Z,8.00
2019-02-23T12:39:59.041Z,7.90
2019-02-23T12:40:59.028Z,7.80
2019-02-23T12:41:58.967Z,7.60
2019-02-23T12:42:58.932Z,7.80
2019-02-23T12:43:58.907Z,7.60
2019-02-23T12:44:58.845Z,8.00
2019-02-23T12:45:58.815Z,7.50
2019-02-23T12:46:58.770Z,7.70
2019-02-23T12:47:58.739Z,7.90
2019-02-23T12:48:58.728Z,7.10
2019-02-23T12:49:58.668Z,7.40
2019-02-23T12:50:58.647Z,7.20
2019-02-23T12:51:58.595Z,7.50
2019-02-23T12:52:59.854Z,7.70
2019-02-23T12:53:58.544Z,7.60